sensor_id;sensor_type;location;lat;lon;timestamp;pressure;altitude;pressure_sealevel;temperature;humidity
14612;BME280;7392;52.078;11.650;2022-10-30T00:01:14;101110.31;;;13.22;100.00
14612;BME280;7392;52.078;11.650;2022-10-30T00:03:41;101105.00;;;13.21;100.00
14612;BME280;7392;52.078;11.650;2022-10-30T00:06:09;101104.13;;;13.20;100.00
14612;BME280;7392;52.078;11.650;2022-10-30T00:08:37;101104.13;;;13.20;100.00
14612;BME280;7392;52.078;11.650;2022-10-30T00:11:06;101100.56;;;13.18;100.00
14612;BME280;7392;52.078;11.650;2022-10-30T00:13:34;101097.00;;;13.19;100.00
14612;BME280;7392;52.078;11.650;2022-10-30T00:16:06;101099.69;;;13.19;100.00
14612;BME280;7392;52.078;11.650;2022-10-30T00:18:34;101097.00;;;13.19;100.00
14612;BME280;7392;52.078;11.650;2022-10-30T00:21:07;101097.88;;;13.20;100.00
14612;BME280;7392;52.078;11.650;2022-10-30T00:23:35;101094.34;;;13.19;100.00
14612;BME280;7392;52.078;11.650;2022-10-30T00:26:03;101092.53;;;13.20;100.00
14612;BME280;7392;52.078;11.650;2022-10-30T00:28:32;101089.88;;;13.18;100.00
14612;BME280;7392;52.078;11.650;2022-10-30T00:31:01;101086.34;;;13.18;100.00
14612;BME280;7392;52.078;11.650;2022-10-30T00:33:30;101079.22;;;13.18;100.00
14612;BME280;7392;52.078;11.650;2022-10-30T00:35:59;101081.00;;;13.19;100.00
14612;BME280;7392;52.078;11.650;2022-10-30T00:38:26;101091.66;;;13.19;100.00
14612;BME280;7392;52.078;11.650;2022-10-30T00:40:54;101087.22;;;13.20;100.00
14612;BME280;7392;52.078;11.650;2022-10-30T00:43:27;101075.66;;;13.21;100.00
14612;BME280;7392;52.078;11.650;2022-10-30T00:45:57;101078.31;;;13.22;100.00
14612;BME280;7392;52.078;11.650;2022-10-30T00:48:27;101073.00;;;13.22;100.00
14612;BME280;7392;52.078;11.650;2022-10-30T00:50:57;101071.22;;;13.21;100.00
14612;BME280;7392;52.078;11.650;2022-10-30T00:53:28;101073.88;;;13.20;100.00
14612;BME280;7392;52.078;11.650;2022-10-30T00:55:58;101073.88;;;13.18;100.00
14612;BME280;7392;52.078;11.650;2022-10-30T00:58:29;101060.56;;;13.17;100.00
14612;BME280;7392;52.078;11.650;2022-10-30T01:01:01;101073.94;;;13.15;100.00
14612;BME280;7392;52.078;11.650;2022-10-30T01:03:31;101067.69;;;13.16;100.00
14612;BME280;7392;52.078;11.650;2022-10-30T01:06:03;101057.94;;;13.15;100.00
14612;BME280;7392;52.078;11.650;2022-10-30T01:08:33;101055.28;;;13.14;100.00
14612;BME280;7392;52.078;11.650;2022-10-30T01:11:02;101062.34;;;13.16;100.00
14612;BME280;7392;52.078;11.650;2022-10-30T01:13:31;101060.59;;;13.15;100.00
14612;BME280;7392;52.078;11.650;2022-10-30T01:16:14;101060.56;;;13.17;100.00
14612;BME280;7392;52.078;11.650;2022-10-30T01:18:51;101057.94;;;13.15;100.00
14612;BME280;7392;52.078;11.650;2022-10-30T01:21:32;101067.72;;;13.13;100.00
14612;BME280;7392;52.078;11.650;2022-10-30T01:24:20;101049.03;;;13.13;100.00
14612;BME280;7392;52.078;11.650;2022-10-30T01:26:58;101040.16;;;13.13;100.00
14612;BME280;7392;52.078;11.650;2022-10-30T01:29:44;101018.81;;;13.13;100.00
14612;BME280;7392;52.078;11.650;2022-10-30T01:32:28;101021.50;;;13.11;100.00
14612;BME280;7392;52.078;11.650;2022-10-30T01:35:04;101041.97;;;13.10;100.00
14612;BME280;7392;52.078;11.650;2022-10-30T01:37:41;101055.31;;;13.09;100.00
14612;BME280;7392;52.078;11.650;2022-10-30T01:40:16;101056.19;;;13.08;100.00
14612;BME280;7392;52.078;11.650;2022-10-30T01:42:49;101061.53;;;13.08;100.00
14612;BME280;7392;52.078;11.650;2022-10-30T01:45:47;101048.19;;;13.08;100.00
14612;BME280;7392;52.078;11.650;2022-10-30T01:48:38;101041.09;;;13.08;100.00
14612;BME280;7392;52.078;11.650;2022-10-30T01:51:16;101032.19;;;13.06;100.00
14612;BME280;7392;52.078;11.650;2022-10-30T01:53:51;101034.88;;;13.06;100.00
14612;BME280;7392;52.078;11.650;2022-10-30T01:56:36;101039.34;;;13.04;100.00
14612;BME280;7392;52.078;11.650;2022-10-30T01:59:08;101028.69;;;13.00;100.00
14612;BME280;7392;52.078;11.650;2022-10-30T02:01:38;101035.81;;;12.99;100.00
14612;BME280;7392;52.078;11.650;2022-10-30T02:04:08;101035.81;;;12.98;100.00
14612;BME280;7392;52.078;11.650;2022-10-30T02:06:38;101029.63;;;12.97;100.00
14612;BME280;7392;52.078;11.650;2022-10-30T02:09:09;101033.16;;;12.98;100.00
14612;BME280;7392;52.078;11.650;2022-10-30T02:11:45;101035.84;;;12.96;100.00
14612;BME280;7392;52.078;11.650;2022-10-30T02:14:17;101032.28;;;12.97;100.00
14612;BME280;7392;52.078;11.650;2022-10-30T02:16:50;101027.81;;;12.98;100.00
14612;BME280;7392;52.078;11.650;2022-10-30T02:19:19;101033.16;;;12.99;100.00
14612;BME280;7392;52.078;11.650;2022-10-30T02:21:49;101019.81;;;12.99;100.00
14612;BME280;7392;52.078;11.650;2022-10-30T02:24:17;101020.69;;;13.00;100.00
14612;BME280;7392;52.078;11.650;2022-10-30T02:26:45;101011.81;;;12.99;100.00
14612;BME280;7392;52.078;11.650;2022-10-30T02:29:13;101018.06;;;12.98;100.00
14612;BME280;7392;52.078;11.650;2022-10-30T02:31:43;101007.41;;;12.97;100.00
14612;BME280;7392;52.078;11.650;2022-10-30T02:34:11;101008.31;;;12.96;100.00
14612;BME280;7392;52.078;11.650;2022-10-30T02:36:39;101005.66;;;12.94;100.00
14612;BME280;7392;52.078;11.650;2022-10-30T02:39:09;101002.97;;;12.94;100.00
14612;BME280;7392;52.078;11.650;2022-10-30T02:41:37;101008.31;;;12.94;100.00
14612;BME280;7392;52.078;11.650;2022-10-30T02:44:05;101008.31;;;12.94;100.00
14612;BME280;7392;52.078;11.650;2022-10-30T02:46:34;101012.75;;;12.94;100.00
14612;BME280;7392;52.078;11.650;2022-10-30T02:49:02;101007.44;;;12.94;100.00
14612;BME280;7392;52.078;11.650;2022-10-30T02:51:31;101000.31;;;12.94;100.00
14612;BME280;7392;52.078;11.650;2022-10-30T02:53:59;100998.53;;;12.95;100.00
14612;BME280;7392;52.078;11.650;2022-10-30T02:56:29;101003.91;;;12.93;100.00
14612;BME280;7392;52.078;11.650;2022-10-30T02:58:58;101013.63;;;12.94;100.00
14612;BME280;7392;52.078;11.650;2022-10-30T03:01:27;101011.88;;;12.93;100.00
14612;BME280;7392;52.078;11.650;2022-10-30T03:03:57;101008.31;;;12.91;100.00
14612;BME280;7392;52.078;11.650;2022-10-30T03:06:25;101008.31;;;12.91;100.00
14612;BME280;7392;52.078;11.650;2022-10-30T03:08:53;101018.13;;;12.90;100.00
14612;BME280;7392;52.078;11.650;2022-10-30T03:11:21;101016.38;;;12.88;100.00
14612;BME280;7392;52.078;11.650;2022-10-30T03:13:50;101028.81;;;12.86;100.00
14612;BME280;7392;52.078;11.650;2022-10-30T03:16:22;101029.72;;;12.83;100.00
14612;BME280;7392;52.078;11.650;2022-10-30T03:18:51;101029.72;;;12.83;100.00
14612;BME280;7392;52.078;11.650;2022-10-30T03:21:21;101035.06;;;12.80;100.00
14612;BME280;7392;52.078;11.650;2022-10-30T03:23:49;101030.66;;;12.78;100.00
14612;BME280;7392;52.078;11.650;2022-10-30T03:26:18;101031.53;;;12.77;100.00
14612;BME280;7392;52.078;11.650;2022-10-30T03:28:51;101028.88;;;12.75;100.00
14612;BME280;7392;52.078;11.650;2022-10-30T03:31:20;101043.13;;;12.72;100.00
14612;BME280;7392;52.078;11.650;2022-10-30T03:34:05;101020.91;;;12.70;100.00
14612;BME280;7392;52.078;11.650;2022-10-30T03:36:33;101014.72;;;12.68;100.00
14612;BME280;7392;52.078;11.650;2022-10-30T03:39:01;101018.28;;;12.67;100.00
14612;BME280;7392;52.078;11.650;2022-10-30T03:41:31;101019.19;;;12.66;100.00
14612;BME280;7392;52.078;11.650;2022-10-30T03:44:01;101028.97;;;12.64;100.00
14612;BME280;7392;52.078;11.650;2022-10-30T03:46:28;101023.66;;;12.61;100.00
14612;BME280;7392;52.078;11.650;2022-10-30T03:49:10;101029.00;;;12.58;100.00
14612;BME280;7392;52.078;11.650;2022-10-30T03:51:38;101031.66;;;12.55;100.00
14612;BME280;7392;52.078;11.650;2022-10-30T03:54:06;101037.91;;;12.52;100.00
14612;BME280;7392;52.078;11.650;2022-10-30T03:56:34;101034.38;;;12.50;100.00
14612;BME280;7392;52.078;11.650;2022-10-30T03:59:04;101043.25;;;12.48;100.00
14612;BME280;7392;52.078;11.650;2022-10-30T04:01:36;101033.53;;;12.45;100.00
14612;BME280;7392;52.078;11.650;2022-10-30T04:04:04;101033.53;;;12.41;100.00
14612;BME280;7392;52.078;11.650;2022-10-30T04:06:32;101042.41;;;12.38;100.00
14612;BME280;7392;52.078;11.650;2022-10-30T04:09:00;101039.78;;;12.35;100.00
14612;BME280;7392;52.078;11.650;2022-10-30T04:11:34;101029.13;;;12.33;100.00
14612;BME280;7392;52.078;11.650;2022-10-30T04:14:04;101018.50;;;12.32;100.00
14612;BME280;7392;52.078;11.650;2022-10-30T04:16:31;101023.81;;;12.30;100.00
14612;BME280;7392;52.078;11.650;2022-10-30T04:19:00;101006.97;;;12.28;100.00
14612;BME280;7392;52.078;11.650;2022-10-30T04:21:28;101010.50;;;12.27;100.00
14612;BME280;7392;52.078;11.650;2022-10-30T04:23:56;101025.63;;;12.27;100.00
14612;BME280;7392;52.078;11.650;2022-10-30T04:26:30;101014.97;;;12.25;100.00
14612;BME280;7392;52.078;11.650;2022-10-30T04:28:57;101027.41;;;12.25;100.00
14612;BME280;7392;52.078;11.650;2022-10-30T04:31:27;101037.16;;;12.23;100.00
14612;BME280;7392;52.078;11.650;2022-10-30T04:33:54;101054.03;;;12.23;100.00
14612;BME280;7392;52.078;11.650;2022-10-30T04:36:23;101020.31;;;12.22;100.00
14612;BME280;7392;52.078;11.650;2022-10-30T04:38:56;101028.28;;;12.22;100.00
14612;BME280;7392;52.078;11.650;2022-10-30T04:41:26;101023.84;;;12.21;100.00
14612;BME280;7392;52.078;11.650;2022-10-30T04:44:00;101020.31;;;12.19;100.00
14612;BME280;7392;52.078;11.650;2022-10-30T04:46:31;101016.75;;;12.20;100.00
14612;BME280;7392;52.078;11.650;2022-10-30T04:49:07;101017.66;;;12.19;100.00
14612;BME280;7392;52.078;11.650;2022-10-30T04:51:34;101028.31;;;12.18;100.00
14612;BME280;7392;52.078;11.650;2022-10-30T04:54:04;101030.09;;;12.17;100.00
14612;BME280;7392;52.078;11.650;2022-10-30T04:56:34;101021.22;;;12.15;100.00
14612;BME280;7392;52.078;11.650;2022-10-30T04:59:02;101024.78;;;12.12;100.00
14612;BME280;7392;52.078;11.650;2022-10-30T05:01:31;101035.41;;;12.12;100.00
14612;BME280;7392;52.078;11.650;2022-10-30T05:04:01;101040.75;;;12.11;100.00
14612;BME280;7392;52.078;11.650;2022-10-30T05:06:30;101044.31;;;12.10;100.00
14612;BME280;7392;52.078;11.650;2022-10-30T05:09:00;101037.22;;;12.07;100.00
14612;BME280;7392;52.078;11.650;2022-10-30T05:11:33;101046.13;;;12.08;100.00
14612;BME280;7392;52.078;11.650;2022-10-30T05:14:01;101036.34;;;12.05;100.00
14612;BME280;7392;52.078;11.650;2022-10-30T05:16:29;101035.47;;;12.05;100.00
14612;BME280;7392;52.078;11.650;2022-10-30T05:19:01;101044.31;;;12.05;100.00
14612;BME280;7392;52.078;11.650;2022-10-30T05:21:29;101043.44;;;12.05;100.00
14612;BME280;7392;52.078;11.650;2022-10-30T05:23:57;101040.78;;;12.03;100.00
14612;BME280;7392;52.078;11.650;2022-10-30T05:26:27;101044.34;;;12.01;100.00
14612;BME280;7392;52.078;11.650;2022-10-30T05:28:54;101046.13;;;12.00;100.00
14612;BME280;7392;52.078;11.650;2022-10-30T05:31:22;101049.69;;;11.99;100.00
14612;BME280;7392;52.078;11.650;2022-10-30T05:34:29;101045.25;;;11.96;100.00
14612;BME280;7392;52.078;11.650;2022-10-30T05:36:57;101048.78;;;11.95;100.00
14612;BME280;7392;52.078;11.650;2022-10-30T05:39:25;101054.13;;;11.95;100.00
14612;BME280;7392;52.078;11.650;2022-10-30T05:41:52;101054.16;;;11.94;100.00
14612;BME280;7392;52.078;11.650;2022-10-30T05:44:23;101063.88;;;11.93;100.00
14612;BME280;7392;52.078;11.650;2022-10-30T05:47:12;101049.69;;;11.91;100.00
14612;BME280;7392;52.078;11.650;2022-10-30T05:49:46;101065.66;;;11.91;100.00
14612;BME280;7392;52.078;11.650;2022-10-30T05:52:18;101062.97;;;11.90;100.00
14612;BME280;7392;52.078;11.650;2022-10-30T05:54:48;101061.19;;;11.90;100.00
14612;BME280;7392;52.078;11.650;2022-10-30T05:57:33;101066.56;;;11.89;100.00
14612;BME280;7392;52.078;11.650;2022-10-30T06:00:00;101072.75;;;11.89;100.00
14612;BME280;7392;52.078;11.650;2022-10-30T06:02:29;101073.63;;;11.88;100.00
14612;BME280;7392;52.078;11.650;2022-10-30T06:04:59;101074.53;;;11.87;100.00
14612;BME280;7392;52.078;11.650;2022-10-30T06:07:26;101070.97;;;11.87;100.00
14612;BME280;7392;52.078;11.650;2022-10-30T06:09:54;101077.19;;;11.86;100.00
14612;BME280;7392;52.078;11.650;2022-10-30T06:12:35;101084.28;;;11.85;100.00
14612;BME280;7392;52.078;11.650;2022-10-30T06:15:14;101085.19;;;11.83;100.00
14612;BME280;7392;52.078;11.650;2022-10-30T06:17:42;101088.72;;;11.80;100.00
14612;BME280;7392;52.078;11.650;2022-10-30T06:20:16;101086.97;;;11.77;100.00
14612;BME280;7392;52.078;11.650;2022-10-30T06:23:06;101089.63;;;11.76;100.00
14612;BME280;7392;52.078;11.650;2022-10-30T06:25:42;101099.38;;;11.74;100.00
14612;BME280;7392;52.078;11.650;2022-10-30T06:28:18;101097.59;;;11.71;100.00
14612;BME280;7392;52.078;11.650;2022-10-30T06:30:46;101097.59;;;11.68;100.00
14612;BME280;7392;52.078;11.650;2022-10-30T06:33:13;101088.75;;;11.66;100.00
14612;BME280;7392;52.078;11.650;2022-10-30T06:35:48;101086.97;;;11.64;100.00
14612;BME280;7392;52.078;11.650;2022-10-30T06:38:17;101089.66;;;11.62;100.00
14612;BME280;7392;52.078;11.650;2022-10-30T06:40:47;101093.19;;;11.59;100.00
14612;BME280;7392;52.078;11.650;2022-10-30T06:43:17;101095.88;;;11.56;100.00
14612;BME280;7392;52.078;11.650;2022-10-30T06:46:03;101094.94;;;11.54;100.00
14612;BME280;7392;52.078;11.650;2022-10-30T06:48:39;101099.41;;;11.52;100.00
14612;BME280;7392;52.078;11.650;2022-10-30T06:51:09;101091.41;;;11.51;100.00
14612;BME280;7392;52.078;11.650;2022-10-30T06:53:38;101101.19;;;11.50;100.00
14612;BME280;7392;52.078;11.650;2022-10-30T06:56:24;101099.38;;;11.48;100.00
14612;BME280;7392;52.078;11.650;2022-10-30T06:59:21;101102.97;;;11.47;100.00
14612;BME280;7392;52.078;11.650;2022-10-30T07:02:28;101106.50;;;11.46;100.00
14612;BME280;7392;52.078;11.650;2022-10-30T07:05:01;101106.50;;;11.46;100.00
14612;BME280;7392;52.078;11.650;2022-10-30T07:07:30;101112.72;;;11.46;100.00
14612;BME280;7392;52.078;11.650;2022-10-30T07:09:59;101109.16;;;11.46;100.00
14612;BME280;7392;52.078;11.650;2022-10-30T07:12:51;101115.38;;;11.46;100.00
14612;BME280;7392;52.078;11.650;2022-10-30T07:15:35;101115.34;;;11.48;100.00
14612;BME280;7392;52.078;11.650;2022-10-30T07:18:14;101123.34;;;11.49;100.00
14612;BME280;7392;52.078;11.650;2022-10-30T07:20:42;101122.47;;;11.50;100.00
14612;BME280;7392;52.078;11.650;2022-10-30T07:23:11;101126.88;;;11.53;100.00
14612;BME280;7392;52.078;11.650;2022-10-30T07:25:39;101126.88;;;11.54;100.00
14612;BME280;7392;52.078;11.650;2022-10-30T07:28:31;101128.66;;;11.57;100.00
14612;BME280;7392;52.078;11.650;2022-10-30T07:31:17;101128.66;;;11.62;100.00
14612;BME280;7392;52.078;11.650;2022-10-30T07:34:21;101133.97;;;11.66;100.00
14612;BME280;7392;52.078;11.650;2022-10-30T07:37:28;101126.88;;;11.71;100.00
14612;BME280;7392;52.078;11.650;2022-10-30T07:40:10;101126.00;;;11.75;100.00
14612;BME280;7392;52.078;11.650;2022-10-30T07:43:05;101130.41;;;11.86;100.00
14612;BME280;7392;52.078;11.650;2022-10-30T07:45:59;101113.56;;;11.94;100.00
14612;BME280;7392;52.078;11.650;2022-10-30T07:48:45;101120.66;;;12.03;100.00
14612;BME280;7392;52.078;11.650;2022-10-30T07:51:26;101108.22;;;12.10;100.00
14612;BME280;7392;52.078;11.650;2022-10-30T07:53:54;101118.84;;;12.18;100.00
14612;BME280;7392;52.078;11.650;2022-10-30T07:56:24;101119.69;;;12.23;100.00
14612;BME280;7392;52.078;11.650;2022-10-30T07:59:15;101124.16;;;12.30;100.00
14612;BME280;7392;52.078;11.650;2022-10-30T08:02:02;101124.09;;;12.38;100.00
14612;BME280;7392;52.078;11.650;2022-10-30T08:04:48;101120.50;;;12.46;100.00
14612;BME280;7392;52.078;11.650;2022-10-30T08:07:33;101118.72;;;12.56;100.00
14612;BME280;7392;52.078;11.650;2022-10-30T08:10:02;101106.22;;;12.66;100.00
14612;BME280;7392;52.078;11.650;2022-10-30T08:12:32;101108.81;;;12.81;100.00
14612;BME280;7392;52.078;11.650;2022-10-30T08:15:00;101107.88;;;12.93;100.00
14612;BME280;7392;52.078;11.650;2022-10-30T08:17:28;101125.50;;;13.08;100.00
14612;BME280;7392;52.078;11.650;2022-10-30T08:19:56;101125.47;;;13.20;100.00
14612;BME280;7392;52.078;11.650;2022-10-30T08:22:24;101121.81;;;13.34;100.00
14612;BME280;7392;52.078;11.650;2022-10-30T08:24:58;101135.94;;;13.51;100.00
14612;BME280;7392;52.078;11.650;2022-10-30T08:27:29;101139.38;;;13.62;100.00
14612;BME280;7392;52.078;11.650;2022-10-30T08:29:58;101138.41;;;13.73;100.00
14612;BME280;7392;52.078;11.650;2022-10-30T08:32:26;101139.16;;;13.87;100.00
14612;BME280;7392;52.078;11.650;2022-10-30T08:35:32;101140.78;;;14.00;100.00
14612;BME280;7392;52.078;11.650;2022-10-30T08:38:05;101137.09;;;14.14;100.00
14612;BME280;7392;52.078;11.650;2022-10-30T08:40:33;101139.59;;;14.29;100.00
14612;BME280;7392;52.078;11.650;2022-10-30T08:43:04;101137.66;;;14.47;100.00
14612;BME280;7392;52.078;11.650;2022-10-30T08:45:34;101136.56;;;14.62;100.00
14612;BME280;7392;52.078;11.650;2022-10-30T08:48:10;101143.50;;;14.80;100.00
14612;BME280;7392;52.078;11.650;2022-10-30T08:50:40;101136.13;;;14.95;100.00
14612;BME280;7392;52.078;11.650;2022-10-30T08:53:10;101135.03;;;15.10;100.00
14612;BME280;7392;52.078;11.650;2022-10-30T08:55:38;101137.47;;;15.26;100.00
14612;BME280;7392;52.078;11.650;2022-10-30T08:58:14;101143.41;;;15.46;100.00
14612;BME280;7392;52.078;11.650;2022-10-30T09:00:45;101142.19;;;15.64;100.00
14612;BME280;7392;52.078;11.650;2022-10-30T09:03:13;101137.50;;;15.80;100.00
14612;BME280;7392;52.078;11.650;2022-10-30T09:06:00;101143.47;;;15.96;100.00
14612;BME280;7392;52.078;11.650;2022-10-30T09:09:06;101146.56;;;16.23;100.00
14612;BME280;7392;52.078;11.650;2022-10-30T09:11:43;101134.56;;;16.41;100.00
14612;BME280;7392;52.078;11.650;2022-10-30T09:14:11;101135.16;;;16.57;100.00
14612;BME280;7392;52.078;11.650;2022-10-30T09:16:40;101133.00;;;16.74;100.00
14612;BME280;7392;52.078;11.650;2022-10-30T09:19:08;101135.34;;;16.91;100.00
14612;BME280;7392;52.078;11.650;2022-10-30T09:21:43;101135.88;;;17.07;100.00
14612;BME280;7392;52.078;11.650;2022-10-30T09:24:11;101133.66;;;17.25;100.00
14612;BME280;7392;52.078;11.650;2022-10-30T09:26:39;101136.78;;;17.44;100.00
14612;BME280;7392;52.078;11.650;2022-10-30T09:29:20;101136.41;;;17.59;100.00
14612;BME280;7392;52.078;11.650;2022-10-30T09:32:18;101132.31;;;17.80;100.00
14612;BME280;7392;52.078;11.650;2022-10-30T09:35:03;101132.72;;;17.99;100.00
14612;BME280;7392;52.078;11.650;2022-10-30T09:37:36;101130.56;;;18.12;100.00
14612;BME280;7392;52.078;11.650;2022-10-30T09:40:21;101124.91;;;18.23;98.48
14612;BME280;7392;52.078;11.650;2022-10-30T09:42:51;101124.56;;;18.35;96.83
14612;BME280;7392;52.078;11.650;2022-10-30T09:45:56;101126.88;;;18.47;95.36
14612;BME280;7392;52.078;11.650;2022-10-30T09:48:49;101121.03;;;18.64;94.53
14612;BME280;7392;52.078;11.650;2022-10-30T09:51:52;101120.59;;;18.78;93.88
14612;BME280;7392;52.078;11.650;2022-10-30T09:54:32;101119.34;;;18.92;93.02
14612;BME280;7392;52.078;11.650;2022-10-30T09:57:10;101122.72;;;18.98;91.42
14612;BME280;7392;52.078;11.650;2022-10-30T09:59:48;101128.66;;;19.10;90.89
14612;BME280;7392;52.078;11.650;2022-10-30T10:02:29;101124.66;;;19.21;90.52
14612;BME280;7392;52.078;11.650;2022-10-30T10:05:05;101122.47;;;19.34;90.41
14612;BME280;7392;52.078;11.650;2022-10-30T10:08:07;101125.69;;;19.46;89.41
14612;BME280;7392;52.078;11.650;2022-10-30T10:11:02;101121.78;;;19.56;88.61
14612;BME280;7392;52.078;11.650;2022-10-30T10:13:34;101125.06;;;19.64;87.93
14612;BME280;7392;52.078;11.650;2022-10-30T10:16:11;101123.88;;;19.73;87.87
14612;BME280;7392;52.078;11.650;2022-10-30T10:18:44;101130.84;;;19.80;87.32
14612;BME280;7392;52.078;11.650;2022-10-30T10:21:22;101131.47;;;19.88;86.29
14612;BME280;7392;52.078;11.650;2022-10-30T10:23:53;101133.84;;;19.97;86.58
14612;BME280;7392;52.078;11.650;2022-10-30T10:26:29;101129.06;;;20.06;85.19
14612;BME280;7392;52.078;11.650;2022-10-30T10:31:52;101117.72;;;20.21;82.96
14612;BME280;7392;52.078;11.650;2022-10-30T10:34:34;101117.47;;;20.27;81.25
14612;BME280;7392;52.078;11.650;2022-10-30T10:37:12;101118.06;;;20.35;80.15
14612;BME280;7392;52.078;11.650;2022-10-30T10:39:54;101108.69;;;20.46;79.52
14612;BME280;7392;52.078;11.650;2022-10-30T10:42:33;101117.34;;;20.55;78.57
14612;BME280;7392;52.078;11.650;2022-10-30T10:45:15;101115.31;;;20.62;77.76
14612;BME280;7392;52.078;11.650;2022-10-30T10:48:09;101112.38;;;20.68;76.81
14612;BME280;7392;52.078;11.650;2022-10-30T10:50:47;101108.47;;;20.77;76.39
14612;BME280;7392;52.078;11.650;2022-10-30T10:53:21;101115.31;;;20.86;76.39
14612;BME280;7392;52.078;11.650;2022-10-30T10:55:53;101122.22;;;20.93;75.91
14612;BME280;7392;52.078;11.650;2022-10-30T10:58:27;101124.59;;;21.01;75.67
14612;BME280;7392;52.078;11.650;2022-10-30T11:00:57;101126.09;;;21.09;75.67
14612;BME280;7392;52.078;11.650;2022-10-30T11:03:32;101121.28;;;21.16;74.66
14612;BME280;7392;52.078;11.650;2022-10-30T11:06:12;101112.81;;;21.25;74.70
14612;BME280;7392;52.078;11.650;2022-10-30T11:08:46;101115.19;;;21.33;74.55
14612;BME280;7392;52.078;11.650;2022-10-30T11:11:14;101116.78;;;21.39;73.61
14612;BME280;7392;52.078;11.650;2022-10-30T11:13:42;101120.97;;;21.47;72.89
14612;BME280;7392;52.078;11.650;2022-10-30T11:16:24;101110.72;;;21.56;72.86
14612;BME280;7392;52.078;11.650;2022-10-30T11:18:57;101106.78;;;21.63;71.71
14612;BME280;7392;52.078;11.650;2022-10-30T11:21:29;101108.28;;;21.70;70.68
14612;BME280;7392;52.078;11.650;2022-10-30T11:23:59;101107.97;;;21.78;70.02
14612;BME280;7392;52.078;11.650;2022-10-30T11:26:30;101102.34;;;21.82;69.05
14612;BME280;7392;52.078;11.650;2022-10-30T11:29:03;101095.81;;;21.88;68.22
14612;BME280;7392;52.078;11.650;2022-10-30T11:31:32;101103.63;;;21.94;66.83
14612;BME280;7392;52.078;11.650;2022-10-30T11:34:22;101104.38;;;21.98;65.22
14612;BME280;7392;52.078;11.650;2022-10-30T11:36:52;101101.41;;;22.04;65.52
14612;BME280;7392;52.078;11.650;2022-10-30T11:39:23;101103.00;;;22.08;65.21
14612;BME280;7392;52.078;11.650;2022-10-30T11:42:09;101108.09;;;22.16;65.64
14612;BME280;7392;52.078;11.650;2022-10-30T11:44:40;101106.81;;;22.25;65.71
14612;BME280;7392;52.078;11.650;2022-10-30T11:47:10;101105.66;;;22.30;65.01
14612;BME280;7392;52.078;11.650;2022-10-30T11:49:45;101099.91;;;22.38;65.18
14612;BME280;7392;52.078;11.650;2022-10-30T11:52:17;101099.47;;;22.47;65.31
14612;BME280;7392;52.078;11.650;2022-10-30T11:54:49;101100.22;;;22.51;64.24
14612;BME280;7392;52.078;11.650;2022-10-30T11:57:26;101095.31;;;22.59;64.68
14612;BME280;7392;52.078;11.650;2022-10-30T11:59:58;101083.78;;;22.74;65.48
14612;BME280;7392;52.078;11.650;2022-10-30T12:02:40;101087.50;;;22.91;65.45
14612;BME280;7392;52.078;11.650;2022-10-30T12:05:35;101087.97;;;22.99;63.78
14612;BME280;7392;52.078;11.650;2022-10-30T12:08:18;101077.13;;;23.20;64.11
14612;BME280;7392;52.078;11.650;2022-10-30T12:10:57;101077.34;;;23.32;63.48
14612;BME280;7392;52.078;11.650;2022-10-30T12:13:27;101085.56;;;23.48;62.35
14612;BME280;7392;52.078;11.650;2022-10-30T12:16:07;101078.41;;;23.65;62.39
14612;BME280;7392;52.078;11.650;2022-10-30T12:18:36;101087.13;;;23.89;63.20
14612;BME280;7392;52.078;11.650;2022-10-30T12:21:04;101075.47;;;24.04;61.16
14612;BME280;7392;52.078;11.650;2022-10-30T12:23:32;101080.06;;;24.20;60.06
14612;BME280;7392;52.078;11.650;2022-10-30T12:26:08;101071.25;;;24.32;58.26
14612;BME280;7392;52.078;11.650;2022-10-30T12:28:37;101071.56;;;24.43;58.04
14612;BME280;7392;52.078;11.650;2022-10-30T12:31:11;101069.16;;;24.55;56.30
14612;BME280;7392;52.078;11.650;2022-10-30T12:33:43;101068.47;;;24.67;55.75
14612;BME280;7392;52.078;11.650;2022-10-30T12:36:18;101064.97;;;24.81;55.76
14612;BME280;7392;52.078;11.650;2022-10-30T12:38:49;101070.69;;;24.92;54.97
14612;BME280;7392;52.078;11.650;2022-10-30T12:41:22;101076.63;;;24.99;54.05
14612;BME280;7392;52.078;11.650;2022-10-30T12:43:58;101068.28;;;25.02;52.64
14612;BME280;7392;52.078;11.650;2022-10-30T12:46:33;101069.88;;;25.06;53.18
14612;BME280;7392;52.078;11.650;2022-10-30T12:49:08;101074.50;;;25.20;52.73
14612;BME280;7392;52.078;11.650;2022-10-30T12:51:41;101066.00;;;25.26;52.61
14612;BME280;7392;52.078;11.650;2022-10-30T12:54:20;101075.66;;;25.32;52.19
14612;BME280;7392;52.078;11.650;2022-10-30T12:57:06;101069.84;;;25.38;51.49
14612;BME280;7392;52.078;11.650;2022-10-30T12:59:41;101066.50;;;25.49;52.28
14612;BME280;7392;52.078;11.650;2022-10-30T13:02:18;101062.78;;;25.66;52.63
14612;BME280;7392;52.078;11.650;2022-10-30T13:04:50;101059.03;;;25.83;52.84
14612;BME280;7392;52.078;11.650;2022-10-30T13:07:25;101052.34;;;25.88;52.06
14612;BME280;7392;52.078;11.650;2022-10-30T13:10:15;101053.25;;;26.03;52.16
14612;BME280;7392;52.078;11.650;2022-10-30T13:12:49;101051.91;;;26.10;51.45
14612;BME280;7392;52.078;11.650;2022-10-30T13:15:23;101050.03;;;26.25;51.99
14612;BME280;7392;52.078;11.650;2022-10-30T13:17:55;101050.91;;;26.40;52.67
14612;BME280;7392;52.078;11.650;2022-10-30T13:20:27;101043.13;;;26.48;52.08
14612;BME280;7392;52.078;11.650;2022-10-30T13:22:59;101044.69;;;26.53;50.96